Itapeva, Brazil
Current Conditions -  °F | °C
As of 10:00 PM on Thursday 23 Oct 2014 (Local Time) from SBBI Reporting Station
Haze Haze  
Wind Chill: 61°   Ceiling: 300
Heat Index: 61°   Visibility: 3mi
Dew Point: 59°   Wind: 8mph
Humidity: 94%   Direction: 80°E
Pressure: 30.12"   Gusts: NA
Location:  23.98°S, 48.88°W
Report Text: SBBI 240000Z 08007KT 5000 BR SCT002 BKN003 OVC004 16/15 Q1020
Loading
Personal Weather Stations






























Interactive Weather Map
Tropical Storm Tracking
New forecast layout! Learn more

10-Day Weather Forecast

Advertisements
Track Severe Weather on mobile